Time;durP1;ratioP1;P1;durP2;ratioP2;P2;SDS_P1;SDS_P2;PMS_P1;PMS_P2;Temp;Humidity;BMP_temperature;BMP_pressure;BME280_temperature;BME280_humidity;BME280_pressure;Samples;Min_cycle;Max_cycle;Signal;HPM_P1;HPM_P2
2021/04/10 00:00:34;;;;;;;14.93;4.97;;;;;;;7.28;99.23;100706.31;4981399;28;20483;-77
2021/04/10 00:02:59;;;;;;;17.23;4.82;;;;;;;6.80;100.00;100702.69;4989418;28;20043;-77
2021/04/10 00:05:25;;;;;;;14.02;4.03;;;;;;;6.56;100.00;100695.34;4986184;28;20554;-76
2021/04/10 00:07:52;;;;;;;19.48;4.78;;;;;;;6.81;100.00;100698.91;4984553;28;20056;-75
2021/04/10 00:10:21;;;;;;;13.77;4.55;;;;;;;6.94;100.00;100698.63;4986092;28;20595;-77
2021/04/10 00:12:46;;;;;;;16.42;5.45;;;;;;;6.68;100.00;100710.69;4992711;28;20057;-77
2021/04/10 00:15:15;;;;;;;19.17;5.32;;;;;;;6.91;100.00;100714.56;4992975;28;20026;-76
2021/04/10 00:17:41;;;;;;;22.70;4.93;;;;;;;7.07;100.00;100713.63;4985333;28;20130;-76
2021/04/10 00:20:11;;;;;;;18.15;5.57;;;;;;;7.05;100.00;100713.16;4985964;28;20331;-75
2021/04/10 00:22:37;;;;;;;22.25;6.32;;;;;;;6.78;100.00;100711.03;4983374;28;20411;-75
2021/04/10 00:25:04;;;;;;;12.88;5.28;;;;;;;7.03;100.00;100706.56;4992433;28;20036;-76
2021/04/10 00:27:29;;;;;;;12.05;5.03;;;;;;;6.99;100.00;100703.78;4992305;28;20038;-76
2021/04/10 00:29:55;;;;;;;20.80;5.22;;;;;;;6.72;100.00;100709.69;4985314;28;20041;-76
2021/04/10 00:32:20;;;;;;;15.75;5.00;;;;;;;6.87;100.00;100705.63;4990219;28;20095;-75
2021/04/10 00:34:46;;;;;;;17.77;5.57;;;;;;;6.60;100.00;100701.59;4992515;28;20030;-76
2021/04/10 00:37:12;;;;;;;12.93;4.82;;;;;;;6.59;100.00;100694.69;4989145;28;20403;-76
2021/04/10 00:39:37;;;;;;;20.77;5.13;;;;;;;6.94;100.00;100700.53;4992331;28;20042;-75
2021/04/10 00:42:03;;;;;;;14.63;4.50;;;;;;;6.94;100.00;100695.16;4987243;28;20030;-75
2021/04/10 00:44:28;;;;;;;12.93;5.00;;;;;;;6.60;100.00;100701.59;4974736;28;20030;-75
2021/04/10 00:46:54;;;;;;;21.63;5.57;;;;;;;6.45;100.00;100704.84;4992512;28;20391;-76
2021/04/10 00:49:19;;;;;;;15.35;4.72;;;;;;;6.41;100.00;100695.91;4990599;28;20041;-75
2021/04/10 00:51:47;;;;;;;14.30;5.25;;;;;;;6.52;100.00;100699.78;4986418;28;20058;-76
2021/04/10 00:54:13;;;;;;;14.25;5.15;;;;;;;6.36;100.00;100696.09;4990111;28;20120;-75
2021/04/10 00:56:40;;;;;;;15.52;5.43;;;;;;;6.42;100.00;100697.50;4991419;28;20540;-75
2021/04/10 00:59:05;;;;;;;18.63;5.40;;;;;;;6.53;100.00;100693.31;4986798;28;20050;-76
2021/04/10 01:01:31;;;;;;;11.98;5.60;;;;;;;6.79;100.00;100693.91;4979709;28;20038;-75
2021/04/10 01:03:58;;;;;;;15.00;5.28;;;;;;;7.04;100.00;100700.91;4970868;28;20104;-76
2021/04/10 01:06:25;;;;;;;16.75;5.07;;;;;;;7.33;100.00;100691.94;4989642;28;20514;-75
2021/04/10 01:08:51;;;;;;;14.63;5.20;;;;;;;7.52;100.00;100707.50;4989368;28;20065;-75
2021/04/10 01:11:39;;;;;;;15.05;5.13;;;;;;;7.58;99.95;100698.91;4970574;28;20591;-76
2021/04/10 01:14:20;;;;;;;14.18;5.15;;;;;;;7.63;98.54;100696.00;4991768;28;20030;-76
2021/04/10 01:17:01;;;;;;;11.68;4.40;;;;;;;7.77;97.94;100709.09;4990727;28;20045;-76
2021/04/10 01:19:30;;;;;;;;;;;;;;;7.73;98.21;100710.84;4983539;28;20569;-76
2021/04/10 01:22:08;;;;;;;14.50;4.50;;;;;;;7.69;98.13;100704.59;4991954;28;20378;-76
2021/04/10 01:24:42;;;;;;;15.77;5.18;;;;;;;7.44;99.77;100701.13;4988263;28;20443;-77
2021/04/10 01:27:23;;;;;;;16.25;5.03;;;;;;;7.46;99.41;100703.47;4997673;28;20402;-77
2021/04/10 01:29:52;;;;;;;15.55;4.20;;;;;;;7.28;99.35;100697.50;4974433;28;20038;-76
2021/04/10 01:32:19;;;;;;;14.07;4.88;;;;;;;7.24;100.00;100691.22;4991858;28;20110;-76
2021/04/10 01:34:57;;;;;;;13.65;4.72;;;;;;;7.37;99.42;100692.84;4974347;28;20173;-76
2021/04/10 01:37:31;;;;;;;16.42;5.13;;;;;;;7.20;99.36;100701.06;4990771;28;20495;-77
2021/04/10 01:40:03;;;;;;;16.33;4.38;;;;;;;7.20;99.74;100717.13;4984633;28;20034;-77
2021/04/10 01:42:32;;;;;;;11.82;4.07;;;;;;;7.11;99.57;100703.03;4979045;28;20459;-76
2021/04/10 01:45:01;;;;;;;15.43;4.30;;;;;;;7.18;99.22;100714.00;4974314;28;20037;-77
2021/04/10 01:47:32;;;;;;;16.02;4.20;;;;;;;7.22;98.74;100722.91;4951118;28;20026;-76
2021/04/10 01:50:02;;;;;;;11.57;3.72;;;;;;;7.04;99.38;100706.25;4987574;28;20034;-76
2021/04/10 01:52:29;;;;;;;11.63;3.70;;;;;;;7.16;98.94;100721.59;4990257;28;20406;-76
2021/04/10 01:54:55;;;;;;;13.23;3.92;;;;;;;7.14;98.91;100721.91;4995018;28;20044;-76
2021/04/10 01:57:21;;;;;;;12.98;3.85;;;;;;;7.25;98.20;100712.34;4996864;28;20038;-76
2021/04/10 01:59:58;;;;;;;15.23;4.35;;;;;;;7.14;97.94;100718.47;4973498;28;20491;-75
2021/04/10 02:02:41;;;;;;;9.60;3.63;;;;;;;7.21;98.63;100716.81;4985211;28;20349;-75
2021/04/10 02:05:11;;;;;;;10.38;3.95;;;;;;;7.27;97.67;100718.16;4989698;28;20037;-75
2021/04/10 02:07:42;;;;;;;17.88;4.53;;;;;;;7.25;97.79;100717.72;4978694;28;20073;-75
2021/04/10 02:10:12;;;;;;;15.55;4.20;;;;;;;7.23;97.65;100721.81;4988776;28;20026;-75
2021/04/10 02:13:03;;;;;;;14.70;4.05;;;;;;;7.13;97.41;100715.00;4972433;28;20034;-75
2021/04/10 02:15:44;;;;;;;17.65;3.90;;;;;;;6.99;98.18;100717.16;4969448;28;20104;-75
2021/04/10 02:18:12;;;;;;;15.32;5.38;;;;;;;6.71;99.78;100721.50;4981638;28;20487;-76
2021/04/10 02:20:37;;;;;;;19.70;5.38;;;;;;;6.54;100.00;100723.53;4988483;28;20423;-76
2021/04/10 02:23:03;;;;;;;10.60;4.57;;;;;;;6.38;100.00;100729.44;4984195;28;20027;-76
2021/04/10 02:25:36;;;;;;;10.88;3.72;;;;;;;6.65;100.00;100733.50;4987057;28;20487;-75
2021/04/10 02:28:03;;;;;;;15.23;4.15;;;;;;;6.84;100.00;100736.50;4971647;28;20043;-76
2021/04/10 02:30:29;;;;;;;11.18;4.30;;;;;;;7.12;100.00;100734.81;4986854;28;20106;-76
2021/04/10 02:33:00;;;;;;;9.43;3.65;;;;;;;7.18;99.62;100730.06;4985464;28;20037;-75
2021/04/10 02:35:50;;;;;;;12.73;3.95;;;;;;;7.12;99.52;100734.81;4972696;28;20058;-75
2021/04/10 02:38:18;;;;;;;14.07;3.78;;;;;;;7.07;99.76;100731.56;4984834;28;20035;-75
2021/04/10 02:40:52;;;;;;;11.70;4.50;;;;;;;7.23;99.00;100732.53;4984122;28;20030;-75
2021/04/10 02:43:25;;;;;;;10.63;3.45;;;;;;;6.80;99.82;100726.78;4982982;28;20053;-75
2021/04/10 02:45:53;;;;;;;10.85;3.72;;;;;;;6.42;100.00;100734.94;4990557;28;20040;-74
2021/04/10 02:48:24;;;;;;;14.00;3.97;;;;;;;6.60;100.00;100736.34;4983716;28;20204;-76
2021/04/10 02:50:56;;;;;;;10.20;3.58;;;;;;;6.75;100.00;100738.47;4989429;28;20541;-75
2021/04/10 02:53:25;;;;;;;15.18;3.88;;;;;;;6.83;100.00;100739.50;4984593;28;20033;-75
2021/04/10 02:55:56;;;;;;;12.77;3.30;;;;;;;6.85;100.00;100737.28;4978849;28;20038;-75
2021/04/10 02:58:25;;;;;;;13.30;3.15;;;;;;;6.82;100.00;100741.41;4978652;28;20034;-75
2021/04/10 03:00:53;;;;;;;15.45;3.50;;;;;;;6.55;100.00;100733.88;4991786;28;20065;-75
2021/04/10 03:03:23;;;;;;;17.70;3.30;;;;;;;6.43;100.00;100725.03;4975809;28;20046;-74
2021/04/10 03:05:49;;;;;;;15.65;3.20;;;;;;;6.63;100.00;100734.94;4988914;28;20030;-75
2021/04/10 03:08:17;;;;;;;13.45;3.50;;;;;;;6.52;100.00;100734.56;4992393;28;20027;-75
2021/04/10 03:10:46;;;;;;;11.23;3.30;;;;;;;6.31;100.00;100745.22;4992046;28;20042;-76
2021/04/10 03:13:13;;;;;;;13.70;3.22;;;;;;;6.55;100.00;100741.13;4992480;28;20073;-75
2021/04/10 03:15:40;;;;;;;7.78;3.30;;;;;;;6.54;100.00;100742.25;4990756;28;20034;-75
2021/04/10 03:18:08;;;;;;;13.43;3.80;;;;;;;6.60;100.00;100746.28;4975557;28;20031;-75
2021/04/10 03:20:37;;;;;;;14.88;3.47;;;;;;;6.56;100.00;100748.84;4975324;28;20034;-75
2021/04/10 03:23:03;;;;;;;9.88;3.60;;;;;;;6.72;100.00;100759.72;4978778;28;20034;-75
2021/04/10 03:25:36;;;;;;;11.55;3.10;;;;;;;6.98;99.84;100757.66;4983594;28;20038;-75
2021/04/10 03:28:05;;;;;;;14.05;3.47;;;;;;;7.18;98.32;100768.31;4993043;28;20026;-75
2021/04/10 03:30:31;;;;;;;12.60;3.67;;;;;;;7.23;97.53;100759.31;4972878;28;20034;-75
2021/04/10 03:32:57;;;;;;;16.50;3.72;;;;;;;7.22;97.43;100766.56;4992127;28;20026;-76
2021/04/10 03:35:26;;;;;;;16.67;3.42;;;;;;;7.16;97.24;100759.06;4991808;28;20026;-75
2021/04/10 03:37:55;;;;;;;16.15;4.13;;;;;;;7.04;97.75;100773.19;4987557;28;20033;-75
2021/04/10 03:40:20;;;;;;;8.90;3.65;;;;;;;6.97;98.36;100775.59;4991818;28;20080;-75
2021/04/10 03:42:50;;;;;;;13.85;3.35;;;;;;;7.15;97.48;100781.59;4990759;28;20568;-75
2021/04/10 03:45:22;;;;;;;9.77;3.33;;;;;;;7.11;97.54;100784.16;4991836;28;20118;-75
2021/04/10 03:47:50;;;;;;;16.85;3.72;;;;;;;6.97;98.04;100788.97;4989533;28;20462;-74
2021/04/10 03:50:16;;;;;;;15.90;3.58;;;;;;;6.99;98.27;100786.75;4975472;28;20026;-75
2021/04/10 03:52:44;;;;;;;14.70;4.05;;;;;;;6.94;98.44;100781.63;4988993;28;20050;-75
2021/04/10 03:55:12;;;;;;;11.02;3.72;;;;;;;6.97;98.61;100794.34;4990609;28;20127;-75
2021/04/10 03:57:38;;;;;;;15.52;4.68;;;;;;;7.00;98.31;100782.19;4970391;28;20391;-75
2021/04/10 04:00:05;;;;;;;14.00;4.28;;;;;;;6.99;97.96;100799.34;4991023;28;20029;-75
2021/04/10 04:02:41;;;;;;;16.35;4.20;;;;;;;7.03;98.09;100793.03;4991514;28;20124;-75
2021/04/10 04:05:07;;;;;;;12.73;3.88;;;;;;;7.10;97.62;100797.88;4973509;28;20637;-75
2021/04/10 04:07:33;;;;;;;15.57;4.20;;;;;;;6.99;97.34;100794.00;4991141;28;20479;-74
2021/04/10 04:09:58;;;;;;;16.15;4.10;;;;;;;7.00;97.68;100795.56;4992235;28;20037;-76
2021/04/10 04:12:24;;;;;;;14.57;4.00;;;;;;;7.06;97.26;100795.06;4986299;28;20053;-74
2021/04/10 04:14:49;;;;;;;9.10;3.17;;;;;;;7.14;96.04;100809.50;4992897;28;20109;-75
2021/04/10 04:17:15;;;;;;;11.65;3.28;;;;;;;7.23;94.45;100792.25;4989949;28;20023;-75
2021/04/10 04:19:40;;;;;;;14.05;2.97;;;;;;;6.92;95.38;100807.13;4985746;28;22452;-75
2021/04/10 04:22:06;;;;;;;15.43;3.63;;;;;;;7.09;94.78;100807.78;4989189;28;20399;-75
2021/04/10 04:24:31;;;;;;;18.65;3.60;;;;;;;7.06;94.82;100808.47;4985420;28;20084;-74
2021/04/10 04:26:58;;;;;;;8.23;2.35;;;;;;;7.05;94.11;100811.44;4983270;28;20060;-75
2021/04/10 04:29:24;;;;;;;8.55;2.63;;;;;;;6.98;94.45;100811.97;4991436;28;20045;-74
2021/04/10 04:31:50;;;;;;;11.80;2.97;;;;;;;6.80;94.07;100807.06;4992624;28;20093;-75
2021/04/10 04:34:15;;;;;;;16.30;3.05;;;;;;;6.82;94.81;100808.31;4981244;28;20023;-75
2021/04/10 04:36:41;;;;;;;13.63;3.20;;;;;;;6.97;94.34;100807.72;4987342;28;20034;-75
2021/04/10 04:39:06;;;;;;;13.10;3.13;;;;;;;6.66;94.12;100806.53;4990766;28;20038;-74
2021/04/10 04:41:32;;;;;;;13.07;2.88;;;;;;;6.40;94.84;100817.38;4991718;28;20034;-75
2021/04/10 04:43:58;;;;;;;13.68;2.88;;;;;;;6.43;96.42;100822.06;4980946;28;20424;-74
2021/04/10 04:46:24;;;;;;;11.15;3.40;;;;;;;6.74;94.63;100811.81;4983921;28;20391;-75
2021/04/10 04:48:49;;;;;;;10.95;3.13;;;;;;;6.82;94.18;100820.91;4980461;28;20039;-74
2021/04/10 04:51:18;;;;;;;11.13;3.08;;;;;;;6.85;93.89;100821.03;4989302;28;20057;-75
2021/04/10 04:53:44;;;;;;;14.18;3.05;;;;;;;6.95;93.27;100833.25;4982076;28;20037;-74
2021/04/10 04:56:09;;;;;;;10.45;2.92;;;;;;;7.00;92.87;100833.06;4987751;28;20046;-74
2021/04/10 04:58:35;;;;;;;7.88;2.20;;;;;;;6.99;91.87;100834.16;4982783;28;20030;-75
2021/04/10 05:01:00;;;;;;;10.23;2.45;;;;;;;7.03;90.92;100835.88;4983529;28;20034;-75
2021/04/10 05:03:26;;;;;;;11.80;2.53;;;;;;;6.85;90.69;100844.34;4987242;28;20076;-74
2021/04/10 05:05:51;;;;;;;9.65;3.00;;;;;;;6.66;91.29;100847.44;4991089;28;20061;-75
2021/04/10 05:08:17;;;;;;;11.65;3.05;;;;;;;6.41;91.82;100852.94;4986939;28;20037;-75
2021/04/10 05:10:42;;;;;;;11.82;2.80;;;;;;;6.33;91.59;100841.13;4986726;28;20030;-75
2021/04/10 05:13:08;;;;;;;7.07;2.33;;;;;;;6.44;91.21;100847.72;4990571;28;20084;-74
2021/04/10 05:15:33;;;;;;;7.20;2.22;;;;;;;6.39;92.13;100847.88;4991350;28;20041;-75
2021/04/10 05:17:59;;;;;;;9.00;2.53;;;;;;;6.46;92.39;100858.09;4982295;28;20046;-74
2021/04/10 05:20:24;;;;;;;16.48;2.67;;;;;;;6.38;91.57;100865.84;4989598;28;20034;-74
2021/04/10 05:22:54;;;;;;;17.42;2.47;;;;;;;6.50;92.59;100872.38;4973842;28;20050;-75
2021/04/10 05:25:20;;;;;;;15.82;2.25;;;;;;;6.61;92.21;100877.06;4987334;28;20439;-75
2021/04/10 05:27:47;;;;;;;9.38;2.25;;;;;;;6.66;90.80;100873.44;4987594;28;20034;-75
2021/04/10 05:30:13;;;;;;;8.82;2.30;;;;;;;6.51;90.23;100872.06;4984088;28;20030;-75
2021/04/10 05:32:39;;;;;;;11.63;2.38;;;;;;;6.63;90.28;100882.88;4987073;28;20076;-75
2021/04/10 05:35:05;;;;;;;12.00;2.80;;;;;;;6.53;90.33;100871.72;4991415;28;20390;-75
2021/04/10 05:37:30;;;;;;;8.80;2.88;;;;;;;6.55;91.30;100878.34;4989191;28;20583;-75
2021/04/10 05:39:56;;;;;;;11.43;3.00;;;;;;;6.57;91.77;100880.69;4983191;28;20038;-74
2021/04/10 05:42:21;;;;;;;10.98;2.67;;;;;;;6.70;91.14;100883.13;4990727;28;20026;-76
2021/04/10 05:44:47;;;;;;;13.57;3.03;;;;;;;6.47;90.84;100889.06;4991407;28;20087;-77
2021/04/10 05:47:12;;;;;;;12.73;3.10;;;;;;;6.64;91.11;100897.03;4982751;28;20069;-75
2021/04/10 05:49:37;;;;;;;12.98;2.38;;;;;;;6.78;90.01;100902.94;4984126;28;20075;-76
2021/04/10 05:52:03;;;;;;;9.52;2.00;;;;;;;6.86;89.47;100904.78;4991734;28;20112;-76
2021/04/10 05:54:28;;;;;;;12.73;1.92;;;;;;;6.92;88.61;100912.31;4987839;28;20430;-75
2021/04/10 05:56:54;;;;;;;11.68;2.03;;;;;;;6.84;88.67;100907.78;4995208;28;20038;-76
2021/04/10 05:59:19;;;;;;;10.52;1.95;;;;;;;6.88;88.63;100914.06;4982952;28;20031;-76
2021/04/10 06:01:45;;;;;;;10.88;1.92;;;;;;;7.02;89.07;100922.66;4967350;28;20126;-75
2021/04/10 06:04:10;;;;;;;13.13;2.50;;;;;;;7.02;88.45;100914.63;4991119;28;20522;-75
2021/04/10 06:06:36;;;;;;;10.38;2.35;;;;;;;7.02;87.79;100914.63;4990827;28;20048;-76
2021/04/10 06:09:02;;;;;;;9.60;2.35;;;;;;;6.83;88.19;100919.59;4985124;28;20069;-75
2021/04/10 06:11:28;;;;;;;12.68;2.75;;;;;;;6.83;89.14;100924.19;4989562;28;20030;-76
2021/04/10 06:13:53;;;;;;;13.30;2.50;;;;;;;6.67;89.39;100923.13;4991475;28;20118;-76
2021/04/10 06:16:19;;;;;;;11.10;1.98;;;;;;;6.89;88.71;100923.66;4992592;28;20034;-75
2021/04/10 06:18:44;;;;;;;13.93;2.55;;;;;;;6.90;89.60;100927.91;4989140;28;20041;-76
2021/04/10 06:21:10;;;;;;;10.00;1.80;;;;;;;7.04;88.87;100933.81;4990081;28;20100;-76
2021/04/10 06:23:35;;;;;;;7.95;2.00;;;;;;;7.09;88.06;100938.97;4984071;28;20030;-76
2021/04/10 06:26:01;;;;;;;7.72;1.70;;;;;;;6.76;86.81;100943.41;4988251;28;20029;-77
2021/04/10 06:28:27;;;;;;;7.55;2.08;;;;;;;7.00;86.74;100942.81;4990639;28;20037;-76
2021/04/10 06:30:52;;;;;;;13.50;1.98;;;;;;;7.02;86.79;100949.44;4974907;28;20045;-75
2021/04/10 06:33:21;;;;;;;8.10;1.70;;;;;;;6.90;84.47;100953.88;4974481;28;20392;-77
2021/04/10 06:35:47;;;;;;;6.43;1.70;;;;;;;6.85;84.59;100951.41;4983553;28;20064;-77
2021/04/10 06:38:13;;;;;;;9.15;2.03;;;;;;;7.08;84.83;100953.47;4978202;28;20129;-76
2021/04/10 06:40:38;;;;;;;6.93;1.75;;;;;;;6.99;83.40;100958.09;4979131;28;20511;-76
2021/04/10 06:43:04;;;;;;;7.55;1.70;;;;;;;7.08;83.81;100955.38;4977451;28;20117;-77
2021/04/10 06:45:30;;;;;;;8.50;2.00;;;;;;;7.27;82.76;100969.91;4988587;28;20030;-76
2021/04/10 06:47:56;;;;;;;14.55;2.20;;;;;;;7.34;82.83;100966.72;4992993;28;20406;-77
2021/04/10 06:50:22;;;;;;;6.50;1.50;;;;;;;7.33;81.41;100965.16;4994193;28;20030;-76
2021/04/10 06:52:51;;;;;;;7.53;1.50;;;;;;;7.26;81.02;100962.19;4994435;28;20053;-77
2021/04/10 06:55:18;;;;;;;8.30;1.50;;;;;;;7.48;80.42;100969.13;4981346;28;20435;-77
2021/04/10 06:58:02;;;;;;;10.85;1.60;;;;;;;7.37;79.21;100967.97;4990668;28;20105;-75
2021/04/10 07:00:29;;;;;;;11.77;1.55;;;;;;;7.40;77.98;100968.09;4984090;28;20518;-76
2021/04/10 07:02:59;;;;;;;11.63;1.35;;;;;;;7.47;77.15;100978.31;4985279;28;20030;-77
2021/04/10 07:05:26;;;;;;;8.80;1.48;;;;;;;7.50;75.47;100973.06;4987636;28;20031;-77
2021/04/10 07:07:51;;;;;;;7.57;1.23;;;;;;;7.47;76.22;100979.06;4990405;28;20101;-77
2021/04/10 07:10:18;;;;;;;6.22;1.52;;;;;;;7.54;76.99;100984.72;4993921;28;20033;-77
2021/04/10 07:12:44;;;;;;;6.47;1.30;;;;;;;7.61;76.44;100978.81;4998565;28;20602;-77
2021/04/10 07:15:12;;;;;;;5.45;1.23;;;;;;;7.63;75.13;100993.47;4997434;28;20034;-77
2021/04/10 07:17:37;;;;;;;8.00;1.58;;;;;;;7.64;75.39;100996.94;4989473;28;20038;-77
2021/04/10 07:20:26;;;;;;;6.05;1.10;;;;;;;7.42;74.18;101005.25;4998418;28;20118;-77
2021/04/10 07:22:57;;;;;;;4.93;1.23;;;;;;;7.54;73.21;101000.00;4997031;28;20481;-77
2021/04/10 07:25:24;;;;;;;5.07;1.27;;;;;;;7.59;74.02;101002.50;4991815;28;20066;-76
2021/04/10 07:27:50;;;;;;;9.68;1.30;;;;;;;7.79;73.24;101001.72;4995811;28;20519;-77
2021/04/10 07:30:17;;;;;;;7.68;1.52;;;;;;;7.91;73.34;101001.78;4992570;28;20038;-77
2021/04/10 07:32:43;;;;;;;9.18;1.60;;;;;;;8.16;72.52;100998.09;4997158;28;20038;-77
2021/04/10 07:35:11;;;;;;;6.00;1.05;;;;;;;8.45;71.42;100995.31;4998261;28;20037;-76
2021/04/10 07:37:42;;;;;;;7.95;1.30;;;;;;;8.61;70.47;101001.63;4992271;28;20129;-77
2021/04/10 07:40:23;;;;;;;8.97;1.90;;;;;;;8.84;70.89;100999.28;4997452;28;20026;-76
2021/04/10 07:42:48;;;;;;;7.57;1.40;;;;;;;8.91;67.79;101011.06;4997559;28;20041;-77
2021/04/10 07:45:33;;;;;;;6.18;1.20;;;;;;;8.94;67.71;101005.00;4973861;28;20042;-76
2021/04/10 07:48:10;;;;;;;7.90;1.63;;;;;;;9.14;66.62;101007.94;4993093;28;20026;-76
2021/04/10 07:50:36;;;;;;;12.38;1.65;;;;;;;9.25;64.20;101014.44;4995348;28;20125;-76
2021/04/10 07:53:22;;;;;;;9.07;1.35;;;;;;;9.18;61.83;101008.81;4994110;28;20030;-76
2021/04/10 07:55:48;;;;;;;7.57;1.02;;;;;;;9.34;59.37;101017.78;4981744;28;20411;-76
2021/04/10 07:58:25;;;;;;;8.65;1.45;;;;;;;9.43;59.91;101026.50;4983489;28;20018;-76
2021/04/10 08:00:53;;;;;;;5.03;1.30;;;;;;;9.47;59.03;101024.69;4990890;28;20065;-77
2021/04/10 08:03:24;;;;;;;7.85;1.30;;;;;;;9.63;57.89;101022.91;4989623;28;20038;-77
2021/04/10 08:05:50;;;;;;;7.72;1.25;;;;;;;9.63;56.99;101014.81;4996243;28;20038;-76
2021/04/10 08:08:22;;;;;;;9.55;1.38;;;;;;;10.00;58.40;101025.16;4987911;28;20030;-77
2021/04/10 08:10:48;;;;;;;10.77;1.30;;;;;;;9.87;55.91;101025.53;4986381;28;20038;-76
2021/04/10 08:13:13;;;;;;;6.78;1.10;;;;;;;9.90;55.42;101028.34;4978506;28;20599;-76
2021/04/10 08:15:39;;;;;;;5.70;1.40;;;;;;;10.09;55.23;101029.59;4980012;28;20039;-75
2021/04/10 08:18:25;;;;;;;5.30;1.17;;;;;;;10.18;54.62;101025.66;4980369;28;20395;-76
2021/04/10 08:20:51;;;;;;;5.00;1.00;;;;;;;10.46;54.62;101026.47;4973177;28;20046;-75
2021/04/10 08:23:19;;;;;;;5.18;1.20;;;;;;;10.58;54.03;101025.59;4978395;28;20368;-76
2021/04/10 08:25:45;;;;;;;5.25;1.00;;;;;;;10.25;51.86;101042.03;4978619;28;20026;-76
2021/04/10 08:28:11;;;;;;;6.10;1.25;;;;;;;10.55;52.96;101037.84;4982329;28;20437;-75
2021/04/10 08:30:36;;;;;;;5.13;0.93;;;;;;;10.70;53.51;101042.47;4991272;28;20141;-75
2021/04/10 08:33:02;;;;;;;7.60;1.27;;;;;;;10.78;52.42;101046.16;4975631;28;20030;-76
2021/04/10 08:35:27;;;;;;;8.15;1.17;;;;;;;10.71;52.50;101040.56;4985514;28;20397;-76
2021/04/10 08:38:01;;;;;;;6.32;1.08;;;;;;;10.33;50.66;101043.81;4976346;28;20125;-76
2021/04/10 08:40:27;;;;;;;5.40;1.38;;;;;;;10.46;49.93;101036.44;4974528;28;20058;-75
2021/04/10 08:42:59;;;;;;;2.97;1.05;;;;;;;10.66;52.03;101041.63;4982903;28;20034;-76
2021/04/10 08:45:35;;;;;;;2.20;1.00;;;;;;;10.94;52.67;101046.94;4986109;28;20030;-75
2021/04/10 08:48:03;;;;;;;8.15;1.40;;;;;;;11.14;50.98;101045.09;4989219;28;20161;-75
2021/04/10 08:50:31;;;;;;;5.82;1.20;;;;;;;11.31;50.87;101048.22;4987275;28;20562;-76
2021/04/10 08:52:59;;;;;;;8.02;1.17;;;;;;;11.39;49.96;101062.66;4992323;28;20022;-76
2021/04/10 08:55:25;;;;;;;7.70;1.13;;;;;;;11.36;49.57;101047.97;4980617;28;20042;-75
2021/04/10 08:57:50;;;;;;;6.32;1.30;;;;;;;11.76;51.62;101061.25;4990626;28;20084;-76
2021/04/10 09:00:22;;;;;;;4.45;1.50;;;;;;;11.70;48.87;101058.03;4990414;28;20057;-75
2021/04/10 09:02:59;;;;;;;4.82;1.33;;;;;;;12.09;49.53;101061.56;4981803;28;20230;-76
2021/04/10 09:05:45;;;;;;;8.30;1.23;;;;;;;12.40;48.85;101066.84;4973532;28;20392;-76
2021/04/10 09:08:28;;;;;;;4.60;1.20;;;;;;;12.58;48.46;101070.63;4977598;28;20129;-76
2021/04/10 09:11:23;;;;;;;6.00;1.10;;;;;;;12.64;47.14;101065.72;4977232;28;20038;-76
2021/04/10 09:13:51;;;;;;;4.15;0.95;;;;;;;12.51;47.01;101070.50;4960286;28;20197;-75
2021/04/10 09:16:27;;;;;;;6.00;1.02;;;;;;;12.75;47.49;101074.03;4956989;28;20047;-74
2021/04/10 09:18:57;;;;;;;10.38;1.50;;;;;;;12.96;47.33;101077.13;4945837;28;20051;-74
2021/04/10 09:21:35;;;;;;;8.10;1.00;;;;;;;13.28;45.81;101081.94;4960591;28;20393;-74
2021/04/10 09:24:25;;;;;;;2.65;1.00;;;;;;;13.88;46.83;101088.25;4940085;28;20418;-74
2021/04/10 09:27:11;;;;;;;8.07;1.17;;;;;;;14.55;45.26;101097.28;4967815;28;20035;-75
2021/04/10 09:29:47;;;;;;;9.13;1.30;;;;;;;14.38;43.59;101089.72;4968531;28;20142;-74
2021/04/10 09:32:14;;;;;;;6.57;1.13;;;;;;;14.68;43.72;101092.38;4950412;28;20066;-74
2021/04/10 09:34:46;;;;;;;6.22;1.15;;;;;;;13.88;43.50;101090.97;4959397;28;20070;-75
2021/04/10 09:37:20;;;;;;;9.73;1.48;;;;;;;14.43;42.94;101098.31;4965535;28;20046;-74
2021/04/10 09:40:04;;;;;;;6.63;1.10;;;;;;;14.58;43.42;101098.44;4959429;28;20034;-75
2021/04/10 09:42:45;;;;;;;5.72;1.25;;;;;;;14.61;44.87;101095.00;4963584;28;20559;-75
2021/04/10 09:45:31;;;;;;;8.38;1.30;;;;;;;14.56;43.28;101103.47;4952254;28;20248;-73
2021/04/10 09:47:57;;;;;;;5.55;1.40;;;;;;;14.62;44.11;101104.69;4958235;28;20043;-75
2021/04/10 09:50:25;;;;;;;5.30;0.90;;;;;;;14.70;44.67;101109.03;4972083;28;20061;-75
2021/04/10 09:52:59;;;;;;;4.95;1.08;;;;;;;14.65;44.49;101112.09;4972443;28;20366;-74
2021/04/10 09:55:28;;;;;;;7.28;1.27;;;;;;;14.25;42.01;101107.31;4976523;28;20026;-74
2021/04/10 09:57:54;;;;;;;7.40;1.25;;;;;;;14.34;44.73;101107.88;4971898;28;20042;-74
2021/04/10 10:00:30;;;;;;;8.68;1.60;;;;;;;14.16;43.71;101107.63;4974393;28;20554;-74
2021/04/10 10:02:57;;;;;;;6.97;1.05;;;;;;;14.48;43.60;101111.53;4975501;28;20063;-74
2021/04/10 10:05:29;;;;;;;8.15;1.33;;;;;;;14.36;44.21;101113.72;4981025;28;20037;-75
2021/04/10 10:08:09;;;;;;;2.65;1.02;;;;;;;14.08;44.90;101116.78;4981199;28;20045;-75
2021/04/10 10:10:44;;;;;;;9.32;1.50;;;;;;;13.37;44.79;101117.66;4980290;28;20031;-75
2021/04/10 10:13:11;;;;;;;4.22;0.90;;;;;;;13.95;42.74;101112.75;4976714;28;20124;-75
2021/04/10 10:15:39;;;;;;;6.07;1.35;;;;;;;13.73;43.21;101116.28;4975000;28;20102;-75
2021/04/10 10:18:22;;;;;;;6.95;1.13;;;;;;;13.35;46.06;101105.63;4970399;28;20121;-73
2021/04/10 10:21:14;;;;;;;5.88;1.30;;;;;;;13.45;44.77;101115.84;4970106;28;20061;-75
2021/04/10 10:23:43;;;;;;;4.07;1.23;;;;;;;13.29;43.46;101110.56;4969868;28;20031;-74
2021/04/10 10:26:14;;;;;;;8.88;1.38;;;;;;;13.17;42.08;101112.66;4971234;28;20109;-74
2021/04/10 10:28:42;;;;;;;;;;;;;;;12.51;45.50;101118.34;4956457;28;20031;-74
2021/04/10 10:31:13;;;;;;;9.65;1.30;;;;;;;12.79;45.35;101113.50;4964311;28;19918;-74
2021/04/10 10:33:40;;;;;;;5.38;1.05;;;;;;;13.43;45.85;101120.84;4968826;28;20034;-73
2021/04/10 10:36:06;;;;;;;4.82;1.50;;;;;;;13.91;44.36;101109.22;4972880;28;20041;-75
2021/04/10 10:38:40;;;;;;;3.85;1.20;;;;;;;14.26;42.94;101112.41;4983043;28;20026;-75
2021/04/10 10:41:07;;;;;;;5.40;1.05;;;;;;;13.81;43.92;101117.94;4984750;28;20061;-74
2021/04/10 10:43:33;;;;;;;4.55;1.30;;;;;;;14.05;42.58;101106.66;4970177;28;20553;-75
2021/04/10 10:46:02;;;;;;;4.00;1.00;;;;;;;14.47;44.05;101109.19;4967829;28;20554;-75
2021/04/10 10:48:29;;;;;;;6.65;1.50;;;;;;;14.51;43.42;101098.38;4965569;28;20462;-74
2021/04/10 10:51:02;;;;;;;6.55;1.70;;;;;;;14.99;42.30;101105.47;4969737;28;20122;-73
2021/04/10 10:53:31;;;;;;;7.30;1.20;;;;;;;13.80;41.43;101105.53;4967017;28;20403;-74
2021/04/10 10:56:07;;;;;;;6.03;1.05;;;;;;;13.43;43.17;101108.06;4971640;28;20058;-74
2021/04/10 10:58:43;;;;;;;6.88;1.27;;;;;;;13.59;44.57;101091.69;4955630;28;20114;-74
2021/04/10 11:01:17;;;;;;;7.20;1.13;;;;;;;13.66;45.45;101091.81;4963558;28;20042;-74
2021/04/10 11:03:50;;;;;;;3.80;1.10;;;;;;;14.12;43.83;101092.44;4947221;28;20042;-74
2021/04/10 11:06:24;;;;;;;7.47;1.20;;;;;;;13.98;42.81;101087.63;4979676;28;20038;-74
2021/04/10 11:08:51;;;;;;;6.50;1.23;;;;;;;13.74;41.59;101098.91;4960859;28;20030;-74
2021/04/10 11:11:19;;;;;;;5.95;1.08;;;;;;;14.23;44.12;101088.72;4975764;28;20502;-73
2021/04/10 11:13:47;;;;;;;7.55;1.38;;;;;;;14.67;43.61;101086.19;4978265;28;20406;-74
2021/04/10 11:16:14;;;;;;;3.50;0.95;;;;;;;14.97;42.60;101091.50;4971532;28;20078;-74
2021/04/10 11:18:40;;;;;;;7.20;1.48;;;;;;;14.78;40.92;101091.72;4956980;28;20491;-74
2021/04/10 11:21:32;;;;;;;6.88;1.35;;;;;;;14.87;41.85;101086.75;4981853;28;20041;-74
2021/04/10 11:24:04;;;;;;;3.83;1.10;;;;;;;14.81;42.14;101099.09;4980463;28;20046;-74
2021/04/10 11:26:50;;;;;;;6.43;1.10;;;;;;;15.25;40.27;101094.50;4978761;28;20035;-75
2021/04/10 11:29:32;;;;;;;4.68;1.20;;;;;;;15.07;39.49;101088.91;4976350;28;20962;-74
2021/04/10 11:32:11;;;;;;;5.90;1.48;;;;;;;14.85;39.06;101086.34;4976499;28;20034;-74
2021/04/10 11:34:46;;;;;;;5.45;1.02;;;;;;;14.79;38.98;101087.84;4977490;28;20111;-74
2021/04/10 11:37:14;;;;;;;3.55;1.00;;;;;;;14.67;39.89;101086.19;4978619;28;20403;-75